sensor_id;sensor_type;location;lat;lon;timestamp;pressure;altitude;pressure_sealevel;temperature;humidity
77749;BME280;66938;52.084;5.228;2023-06-22T00:00:03;102063.0;;;19.41;73.52
77749;BME280;66938;52.084;5.228;2023-06-22T00:03:15;102066.0;;;19.32;73.3
77749;BME280;66938;52.084;5.228;2023-06-22T00:04:51;102060.0;;;19.31;73.55
77749;BME280;66938;52.084;5.228;2023-06-22T00:06:27;102068.0;;;19.18;73.86
77749;BME280;66938;52.084;5.228;2023-06-22T00:09:40;102075.0;;;19.18;73.59
77749;BME280;66938;52.084;5.228;2023-06-22T00:11:16;102072.0;;;19.11;73.52
77749;BME280;66938;52.084;5.228;2023-06-22T00:12:52;102071.0;;;19.09;73.81
77749;BME280;66938;52.084;5.228;2023-06-22T00:16:05;102069.0;;;19.11;74.11
77749;BME280;66938;52.084;5.228;2023-06-22T00:17:41;102071.0;;;19.13;74.14
77749;BME280;66938;52.084;5.228;2023-06-22T00:19:17;102068.0;;;19.09;74.41
77749;BME280;66938;52.084;5.228;2023-06-22T00:20:54;102065.0;;;19.06;74.47
77749;BME280;66938;52.084;5.228;2023-06-22T00:24:07;102057.0;;;19.05;74.58
77749;BME280;66938;52.084;5.228;2023-06-22T00:25:43;102059.0;;;19.0;74.55
77749;BME280;66938;52.084;5.228;2023-06-22T00:27:19;102059.0;;;18.96;74.49
77749;BME280;66938;52.084;5.228;2023-06-22T00:30:32;102055.0;;;18.96;74.62
77749;BME280;66938;52.084;5.228;2023-06-22T00:32:08;102050.0;;;18.93;74.62
77749;BME280;66938;52.084;5.228;2023-06-22T00:33:45;102053.0;;;18.91;74.97
77749;BME280;66938;52.084;5.228;2023-06-22T00:36:57;102048.0;;;18.89;74.97
77749;BME280;66938;52.084;5.228;2023-06-22T00:38:34;102045.0;;;18.86;75.19
77749;BME280;66938;52.084;5.228;2023-06-22T00:40:10;102049.0;;;18.91;75.03
77749;BME280;66938;52.084;5.228;2023-06-22T00:41:47;102047.0;;;18.93;75.03
77749;BME280;66938;52.084;5.228;2023-06-22T00:44:59;102049.0;;;18.93;74.91
77749;BME280;66938;52.084;5.228;2023-06-22T00:46:35;102047.0;;;18.86;75.16
77749;BME280;66938;52.084;5.228;2023-06-22T00:48:12;102044.0;;;18.81;75.25
77749;BME280;66938;52.084;5.228;2023-06-22T00:51:27;102043.0;;;18.77;75.41
77749;BME280;66938;52.084;5.228;2023-06-22T00:53:05;102045.0;;;18.77;75.3
77749;BME280;66938;52.084;5.228;2023-06-22T00:54:43;102040.0;;;18.77;75.33
77749;BME280;66938;52.084;5.228;2023-06-22T00:56:20;102039.0;;;18.77;75.37
77749;BME280;66938;52.084;5.228;2023-06-22T00:59:32;102037.0;;;18.72;75.55
77749;BME280;66938;52.084;5.228;2023-06-22T01:01:09;102035.0;;;18.7;75.59
77749;BME280;66938;52.084;5.228;2023-06-22T01:02:46;102034.0;;;18.66;75.83
77749;BME280;66938;52.084;5.228;2023-06-22T01:06:15;102032.0;;;18.59;75.88
77749;BME280;66938;52.084;5.228;2023-06-22T01:08:02;102033.0;;;18.53;75.89
77749;BME280;66938;52.084;5.228;2023-06-22T01:09:45;102034.0;;;18.5;76.19
77749;BME280;66938;52.084;5.228;2023-06-22T01:11:32;102030.0;;;18.48;76.23
77749;BME280;66938;52.084;5.228;2023-06-22T01:13:18;102028.0;;;18.5;76.02
77749;BME280;66938;52.084;5.228;2023-06-22T01:16:44;102031.0;;;18.46;76.55
77749;BME280;66938;52.084;5.228;2023-06-22T01:18:26;102038.0;;;18.43;76.91
77749;BME280;66938;52.084;5.228;2023-06-22T01:20:07;102039.0;;;18.41;76.7
77749;BME280;66938;52.084;5.228;2023-06-22T01:21:45;102039.0;;;18.38;76.78
77749;BME280;66938;52.084;5.228;2023-06-22T01:25:11;102043.0;;;18.38;76.69
77749;BME280;66938;52.084;5.228;2023-06-22T01:26:57;102045.0;;;18.39;77.3
77749;BME280;66938;52.084;5.228;2023-06-22T01:28:41;102037.0;;;18.47;77.58
77749;BME280;66938;52.084;5.228;2023-06-22T01:30:22;102027.0;;;18.45;77.36
77749;BME280;66938;52.084;5.228;2023-06-22T01:32:02;102031.0;;;18.36;77.41
77749;BME280;66938;52.084;5.228;2023-06-22T01:35:19;102033.0;;;18.29;77.38
77749;BME280;66938;52.084;5.228;2023-06-22T01:36:58;102035.0;;;18.34;77.58
77749;BME280;66938;52.084;5.228;2023-06-22T01:38:37;102032.0;;;18.34;77.67
77749;BME280;66938;52.084;5.228;2023-06-22T01:41:52;102034.0;;;18.27;77.75
77749;BME280;66938;52.084;5.228;2023-06-22T01:43:30;102034.0;;;18.32;77.33
77749;BME280;66938;52.084;5.228;2023-06-22T01:45:07;102032.0;;;18.2;77.47
77749;BME280;66938;52.084;5.228;2023-06-22T01:46:43;102027.0;;;18.18;77.77
77749;BME280;66938;52.084;5.228;2023-06-22T01:49:58;102026.0;;;18.13;78.19
77749;BME280;66938;52.084;5.228;2023-06-22T01:51:34;102030.0;;;18.18;78.25
77749;BME280;66938;52.084;5.228;2023-06-22T01:53:10;102031.0;;;18.09;78.52
77749;BME280;66938;52.084;5.228;2023-06-22T01:56:23;102026.0;;;18.07;77.97
77749;BME280;66938;52.084;5.228;2023-06-22T01:58:02;102022.0;;;18.02;78.08
77749;BME280;66938;52.084;5.228;2023-06-22T01:59:44;102033.0;;;18.02;77.97
77749;BME280;66938;52.084;5.228;2023-06-22T02:01:30;102033.0;;;18.0;78.02
77749;BME280;66938;52.084;5.228;2023-06-22T02:04:53;102033.0;;;17.95;78.19
77749;BME280;66938;52.084;5.228;2023-06-22T02:06:37;102032.0;;;17.91;78.39
77749;BME280;66938;52.084;5.228;2023-06-22T02:08:17;102030.0;;;17.95;78.31
77749;BME280;66938;52.084;5.228;2023-06-22T02:09:57;102030.0;;;17.88;78.44
77749;BME280;66938;52.084;5.228;2023-06-22T02:13:14;102024.0;;;17.87;78.47
77749;BME280;66938;52.084;5.228;2023-06-22T02:14:51;102027.0;;;17.86;78.47
77749;BME280;66938;52.084;5.228;2023-06-22T02:16:30;102020.0;;;17.84;78.59
77749;BME280;66938;52.084;5.228;2023-06-22T02:18:08;102019.0;;;17.86;78.55
77749;BME280;66938;52.084;5.228;2023-06-22T02:21:20;102020.0;;;17.86;78.47
77749;BME280;66938;52.084;5.228;2023-06-22T02:22:57;102013.0;;;17.86;78.53
77749;BME280;66938;52.084;5.228;2023-06-22T02:24:33;102014.0;;;17.84;78.53
77749;BME280;66938;52.084;5.228;2023-06-22T02:27:46;102011.0;;;17.82;78.72
77749;BME280;66938;52.084;5.228;2023-06-22T02:29:22;102016.0;;;17.78;78.73
77749;BME280;66938;52.084;5.228;2023-06-22T02:30:58;102022.0;;;17.71;78.42
77749;BME280;66938;52.084;5.228;2023-06-22T02:32:34;102019.0;;;17.72;78.87
77749;BME280;66938;52.084;5.228;2023-06-22T02:35:48;102017.0;;;17.77;79.05
77749;BME280;66938;52.084;5.228;2023-06-22T02:37:24;102019.0;;;17.75;79.27
77749;BME280;66938;52.084;5.228;2023-06-22T02:39:00;102021.0;;;17.75;79.11
77749;BME280;66938;52.084;5.228;2023-06-22T02:42:12;102018.0;;;17.77;78.89
77749;BME280;66938;52.084;5.228;2023-06-22T02:43:49;102020.0;;;17.72;78.94
77749;BME280;66938;52.084;5.228;2023-06-22T02:45:25;102017.0;;;17.68;79.03
77749;BME280;66938;52.084;5.228;2023-06-22T02:48:39;102013.0;;;17.68;79.14
77749;BME280;66938;52.084;5.228;2023-06-22T02:50:15;102015.0;;;17.71;79.58
77749;BME280;66938;52.084;5.228;2023-06-22T02:51:51;102015.0;;;17.68;79.77
77749;BME280;66938;52.084;5.228;2023-06-22T02:55:05;102018.0;;;17.62;79.58
77749;BME280;66938;52.084;5.228;2023-06-22T02:56:42;102015.0;;;17.61;79.61
77749;BME280;66938;52.084;5.228;2023-06-22T02:58:18;102012.0;;;17.66;79.37
77749;BME280;66938;52.084;5.228;2023-06-22T02:59:54;102011.0;;;17.7;79.52
77749;BME280;66938;52.084;5.228;2023-06-22T03:03:07;102013.0;;;17.71;79.44
77749;BME280;66938;52.084;5.228;2023-06-22T03:04:43;102014.0;;;17.61;79.38
77749;BME280;66938;52.084;5.228;2023-06-22T03:06:20;102011.0;;;17.53;79.3
77749;BME280;66938;52.084;5.228;2023-06-22T03:09:32;102015.0;;;17.45;79.41
77749;BME280;66938;52.084;5.228;2023-06-22T03:11:08;102011.0;;;17.45;79.48
77749;BME280;66938;52.084;5.228;2023-06-22T03:12:46;102006.0;;;17.41;79.47
77749;BME280;66938;52.084;5.228;2023-06-22T03:15:59;102011.0;;;17.37;79.53
77749;BME280;66938;52.084;5.228;2023-06-22T03:17:36;102012.0;;;17.39;79.44
77749;BME280;66938;52.084;5.228;2023-06-22T03:19:13;102011.0;;;17.41;79.38
77749;BME280;66938;52.084;5.228;2023-06-22T03:20:49;102012.0;;;17.37;79.53
77749;BME280;66938;52.084;5.228;2023-06-22T03:24:01;102010.0;;;17.36;79.69
77749;BME280;66938;52.084;5.228;2023-06-22T03:25:37;102010.0;;;17.37;79.33
77749;BME280;66938;52.084;5.228;2023-06-22T03:27:13;101998.0;;;17.45;79.92
77749;BME280;66938;52.084;5.228;2023-06-22T03:30:26;101996.0;;;17.56;79.58
77749;BME280;66938;52.084;5.228;2023-06-22T03:32:02;101991.0;;;17.48;79.61
77749;BME280;66938;52.084;5.228;2023-06-22T03:33:38;101992.0;;;17.41;79.75
77749;BME280;66938;52.084;5.228;2023-06-22T03:36:50;101988.0;;;17.45;79.7
77749;BME280;66938;52.084;5.228;2023-06-22T03:38:27;101987.0;;;17.41;79.52
77749;BME280;66938;52.084;5.228;2023-06-22T03:40:04;101987.0;;;17.34;79.33
77749;BME280;66938;52.084;5.228;2023-06-22T03:41:40;101990.0;;;17.34;79.61
77749;BME280;66938;52.084;5.228;2023-06-22T03:44:52;101992.0;;;17.38;80.06
77749;BME280;66938;52.084;5.228;2023-06-22T03:46:28;101991.0;;;17.36;79.77
77749;BME280;66938;52.084;5.228;2023-06-22T03:48:05;101988.0;;;17.32;79.74
77749;BME280;66938;52.084;5.228;2023-06-22T03:51:17;101985.0;;;17.23;79.84
77749;BME280;66938;52.084;5.228;2023-06-22T03:52:53;101984.0;;;17.29;79.95
77749;BME280;66938;52.084;5.228;2023-06-22T03:54:30;101983.0;;;17.25;79.8
77749;BME280;66938;52.084;5.228;2023-06-22T03:57:43;101983.0;;;17.18;80.22
77749;BME280;66938;52.084;5.228;2023-06-22T03:59:19;101980.0;;;17.22;80.02
77749;BME280;66938;52.084;5.228;2023-06-22T04:00:55;101981.0;;;17.16;80.03
77749;BME280;66938;52.084;5.228;2023-06-22T04:02:31;101980.0;;;17.16;80.33
77749;BME280;66938;52.084;5.228;2023-06-22T04:05:44;101977.0;;;17.2;80.22
77749;BME280;66938;52.084;5.228;2023-06-22T04:07:21;101982.0;;;17.18;80.17
77749;BME280;66938;52.084;5.228;2023-06-22T04:08:57;101975.0;;;17.14;80.25
77749;BME280;66938;52.084;5.228;2023-06-22T04:12:09;101975.0;;;17.18;80.3
77749;BME280;66938;52.084;5.228;2023-06-22T04:13:45;101980.0;;;17.16;80.37
77749;BME280;66938;52.084;5.228;2023-06-22T04:15:21;101972.0;;;17.16;80.44
77749;BME280;66938;52.084;5.228;2023-06-22T04:18:34;101972.0;;;17.18;80.49
77749;BME280;66938;52.084;5.228;2023-06-22T04:20:10;101970.0;;;17.16;80.41
77749;BME280;66938;52.084;5.228;2023-06-22T04:21:46;101975.0;;;17.21;80.36
77749;BME280;66938;52.084;5.228;2023-06-22T04:24:58;101965.0;;;17.27;80.27
77749;BME280;66938;52.084;5.228;2023-06-22T04:26:35;101963.0;;;17.21;80.37
77749;BME280;66938;52.084;5.228;2023-06-22T04:28:11;101966.0;;;17.31;80.25
77749;BME280;66938;52.084;5.228;2023-06-22T04:29:47;101968.0;;;17.34;80.47
77749;BME280;66938;52.084;5.228;2023-06-22T04:32:59;101966.0;;;17.39;80.42
77749;BME280;66938;52.084;5.228;2023-06-22T04:34:35;101969.0;;;17.46;80.61
77749;BME280;66938;52.084;5.228;2023-06-22T04:36:12;101970.0;;;17.52;80.74
77749;BME280;66938;52.084;5.228;2023-06-22T04:39:24;101973.0;;;17.5;80.52
77749;BME280;66938;52.084;5.228;2023-06-22T04:41:00;101973.0;;;17.47;80.36
77749;BME280;66938;52.084;5.228;2023-06-22T04:42:38;101972.0;;;17.52;80.42
77749;BME280;66938;52.084;5.228;2023-06-22T04:45:54;101972.0;;;17.55;80.49
77749;BME280;66938;52.084;5.228;2023-06-22T04:47:30;101973.0;;;17.57;80.39
77749;BME280;66938;52.084;5.228;2023-06-22T04:49:06;101971.0;;;17.59;80.47
77749;BME280;66938;52.084;5.228;2023-06-22T04:50:43;101973.0;;;17.68;80.45
77749;BME280;66938;52.084;5.228;2023-06-22T04:53:56;101971.0;;;17.71;80.47
77749;BME280;66938;52.084;5.228;2023-06-22T04:55:32;101973.0;;;17.73;80.72
77749;BME280;66938;52.084;5.228;2023-06-22T04:57:08;101973.0;;;17.84;80.75
77749;BME280;66938;52.084;5.228;2023-06-22T05:00:20;101977.0;;;17.91;80.66
77749;BME280;66938;52.084;5.228;2023-06-22T05:01:57;101980.0;;;17.96;80.27
77749;BME280;66938;52.084;5.228;2023-06-22T05:03:34;101984.0;;;18.03;79.97
77749;BME280;66938;52.084;5.228;2023-06-22T05:06:47;101980.0;;;18.09;80.0
77749;BME280;66938;52.084;5.228;2023-06-22T05:08:23;101976.0;;;18.11;79.77
77749;BME280;66938;52.084;5.228;2023-06-22T05:10:00;101972.0;;;18.12;79.97
77749;BME280;66938;52.084;5.228;2023-06-22T05:11:36;101967.0;;;18.16;79.89
77749;BME280;66938;52.084;5.228;2023-06-22T05:14:48;101971.0;;;18.2;79.83
77749;BME280;66938;52.084;5.228;2023-06-22T05:16:24;101974.0;;;18.23;79.59
77749;BME280;66938;52.084;5.228;2023-06-22T05:18:00;101971.0;;;18.21;79.41
77749;BME280;66938;52.084;5.228;2023-06-22T05:21:13;101974.0;;;18.29;79.39
77749;BME280;66938;52.084;5.228;2023-06-22T05:22:49;101978.0;;;18.34;79.27
77749;BME280;66938;52.084;5.228;2023-06-22T05:24:25;101972.0;;;18.36;79.3
77749;BME280;66938;52.084;5.228;2023-06-22T05:27:37;101971.0;;;18.47;79.25
77749;BME280;66938;52.084;5.228;2023-06-22T05:29:13;101976.0;;;18.52;79.53
77749;BME280;66938;52.084;5.228;2023-06-22T05:30:49;101974.0;;;18.59;79.38
77749;BME280;66938;52.084;5.228;2023-06-22T05:34:02;101978.0;;;18.61;79.53
77749;BME280;66938;52.084;5.228;2023-06-22T05:35:38;101980.0;;;18.63;79.25
77749;BME280;66938;52.084;5.228;2023-06-22T05:37:14;101982.0;;;18.62;79.24
77749;BME280;66938;52.084;5.228;2023-06-22T05:38:50;101980.0;;;18.66;79.22
77749;BME280;66938;52.084;5.228;2023-06-22T05:42:04;101985.0;;;18.78;78.83
77749;BME280;66938;52.084;5.228;2023-06-22T05:43:41;101988.0;;;18.84;79.05
77749;BME280;66938;52.084;5.228;2023-06-22T05:45:17;101985.0;;;18.89;79.05
77749;BME280;66938;52.084;5.228;2023-06-22T05:48:29;101986.0;;;18.97;79.2
77749;BME280;66938;52.084;5.228;2023-06-22T05:50:06;101983.0;;;19.04;78.98
77749;BME280;66938;52.084;5.228;2023-06-22T05:51:44;101986.0;;;19.14;78.66
77749;BME280;66938;52.084;5.228;2023-06-22T05:54:56;101982.0;;;19.16;78.61
77749;BME280;66938;52.084;5.228;2023-06-22T05:56:32;101987.0;;;19.25;78.33
77749;BME280;66938;52.084;5.228;2023-06-22T05:58:08;101987.0;;;19.34;78.14
77749;BME280;66938;52.084;5.228;2023-06-22T05:59:44;101989.0;;;19.45;78.2
77749;BME280;66938;52.084;5.228;2023-06-22T06:02:57;101991.0;;;19.48;78.44
77749;BME280;66938;52.084;5.228;2023-06-22T06:04:33;101988.0;;;19.56;78.33
77749;BME280;66938;52.084;5.228;2023-06-22T06:06:09;101986.0;;;19.66;78.08
77749;BME280;66938;52.084;5.228;2023-06-22T06:09:22;101978.0;;;19.7;78.24
77749;BME280;66938;52.084;5.228;2023-06-22T06:10:59;101980.0;;;19.78;78.0
77749;BME280;66938;52.084;5.228;2023-06-22T06:12:35;101980.0;;;19.93;78.05
77749;BME280;66938;52.084;5.228;2023-06-22T06:15:47;101975.0;;;20.0;78.39
77749;BME280;66938;52.084;5.228;2023-06-22T06:17:23;101973.0;;;20.04;77.83
77749;BME280;66938;52.084;5.228;2023-06-22T06:18:59;101968.0;;;20.16;77.22
77749;BME280;66938;52.084;5.228;2023-06-22T06:20:35;101968.0;;;20.25;77.33
77749;BME280;66938;52.084;5.228;2023-06-22T06:23:48;101967.0;;;20.31;76.99
77749;BME280;66938;52.084;5.228;2023-06-22T06:25:24;101961.0;;;20.34;77.06
77749;BME280;66938;52.084;5.228;2023-06-22T06:27:00;101963.0;;;20.45;76.86
77749;BME280;66938;52.084;5.228;2023-06-22T06:30:14;101961.0;;;20.56;75.94
77749;BME280;66938;52.084;5.228;2023-06-22T06:31:51;101959.0;;;20.65;76.12
77749;BME280;66938;52.084;5.228;2023-06-22T06:33:27;101957.0;;;20.74;75.91
77749;BME280;66938;52.084;5.228;2023-06-22T06:36:40;101955.0;;;20.83;75.77
77749;BME280;66938;52.084;5.228;2023-06-22T06:38:17;101956.0;;;20.93;76.06
77749;BME280;66938;52.084;5.228;2023-06-22T06:39:53;101952.0;;;21.01;75.92
77749;BME280;66938;52.084;5.228;2023-06-22T06:43:05;101941.0;;;21.1;75.06
77749;BME280;66938;52.084;5.228;2023-06-22T06:44:41;101945.0;;;21.21;74.81
77749;BME280;66938;52.084;5.228;2023-06-22T06:46:17;101943.0;;;21.27;74.55
77749;BME280;66938;52.084;5.228;2023-06-22T06:47:54;101940.0;;;21.37;73.72
77749;BME280;66938;52.084;5.228;2023-06-22T06:51:06;101939.0;;;21.43;73.84
77749;BME280;66938;52.084;5.228;2023-06-22T06:52:42;101938.0;;;21.53;73.19
77749;BME280;66938;52.084;5.228;2023-06-22T06:54:18;101938.0;;;21.55;73.02
77749;BME280;66938;52.084;5.228;2023-06-22T06:57:30;101940.0;;;21.66;73.19
77749;BME280;66938;52.084;5.228;2023-06-22T06:59:06;101938.0;;;21.74;72.53
77749;BME280;66938;52.084;5.228;2023-06-22T07:00:43;101933.0;;;21.81;72.73
77749;BME280;66938;52.084;5.228;2023-06-22T07:03:55;101932.0;;;21.9;72.27
77749;BME280;66938;52.084;5.228;2023-06-22T07:05:31;101930.0;;;21.95;72.3
77749;BME280;66938;52.084;5.228;2023-06-22T07:07:07;101927.0;;;22.01;72.14
77749;BME280;66938;52.084;5.228;2023-06-22T07:08:44;101930.0;;;22.13;72.08
77749;BME280;66938;52.084;5.228;2023-06-22T07:11:56;101930.0;;;22.18;71.8
77749;BME280;66938;52.084;5.228;2023-06-22T07:13:32;101923.0;;;22.24;72.16
77749;BME280;66938;52.084;5.228;2023-06-22T07:15:09;101927.0;;;22.17;72.06
77749;BME280;66938;52.084;5.228;2023-06-22T07:18:21;101930.0;;;22.23;72.19
77749;BME280;66938;52.084;5.228;2023-06-22T07:19:58;101936.0;;;22.37;71.19
77749;BME280;66938;52.084;5.228;2023-06-22T07:21:34;101930.0;;;22.46;70.94
77749;BME280;66938;52.084;5.228;2023-06-22T07:24:46;101931.0;;;22.53;70.89
77749;BME280;66938;52.084;5.228;2023-06-22T07:26:22;101932.0;;;22.52;68.39
77749;BME280;66938;52.084;5.228;2023-06-22T07:28:00;101934.0;;;22.63;68.14
77749;BME280;66938;52.084;5.228;2023-06-22T07:29:38;101933.0;;;22.71;69.14
77749;BME280;66938;52.084;5.228;2023-06-22T07:32:50;101932.0;;;22.8;69.52
77749;BME280;66938;52.084;5.228;2023-06-22T07:34:26;101932.0;;;22.82;68.98
77749;BME280;66938;52.084;5.228;2023-06-22T07:36:03;101930.0;;;22.9;68.47
77749;BME280;66938;52.084;5.228;2023-06-22T07:39:16;101926.0;;;22.98;67.69
77749;BME280;66938;52.084;5.228;2023-06-22T07:40:52;101927.0;;;22.98;67.62
77749;BME280;66938;52.084;5.228;2023-06-22T07:42:28;101918.0;;;23.05;67.62
77749;BME280;66938;52.084;5.228;2023-06-22T07:45:40;101919.0;;;23.08;65.77
77749;BME280;66938;52.084;5.228;2023-06-22T07:47:16;101911.0;;;23.12;65.58
77749;BME280;66938;52.084;5.228;2023-06-22T07:48:52;101914.0;;;23.26;66.98
77749;BME280;66938;52.084;5.228;2023-06-22T07:52:05;101913.0;;;23.32;66.28
77749;BME280;66938;52.084;5.228;2023-06-22T07:53:43;101912.0;;;23.37;65.91
77749;BME280;66938;52.084;5.228;2023-06-22T07:55:19;101907.0;;;23.38;65.92
77749;BME280;66938;52.084;5.228;2023-06-22T07:56:55;101903.0;;;23.43;66.09
77749;BME280;66938;52.084;5.228;2023-06-22T08:00:09;101907.0;;;23.53;65.44
77749;BME280;66938;52.084;5.228;2023-06-22T08:01:46;101903.0;;;23.53;64.72
77749;BME280;66938;52.084;5.228;2023-06-22T08:03:22;101903.0;;;23.6;64.47
77749;BME280;66938;52.084;5.228;2023-06-22T08:06:34;101901.0;;;23.64;64.55
77749;BME280;66938;52.084;5.228;2023-06-22T08:08:10;101896.0;;;23.66;63.92
77749;BME280;66938;52.084;5.228;2023-06-22T08:09:47;101891.0;;;23.68;63.15
77749;BME280;66938;52.084;5.228;2023-06-22T08:13:01;101891.0;;;23.7;62.46
77749;BME280;66938;52.084;5.228;2023-06-22T08:14:38;101881.0;;;23.73;61.95
77749;BME280;66938;52.084;5.228;2023-06-22T08:16:14;101875.0;;;23.85;62.35
77749;BME280;66938;52.084;5.228;2023-06-22T08:17:50;101876.0;;;23.92;60.83
77749;BME280;66938;52.084;5.228;2023-06-22T08:21:04;101869.0;;;23.97;59.64
77749;BME280;66938;52.084;5.228;2023-06-22T08:22:41;101867.0;;;23.97;62.39
77749;BME280;66938;52.084;5.228;2023-06-22T08:24:17;101865.0;;;24.08;61.79
77749;BME280;66938;52.084;5.228;2023-06-22T08:27:30;101863.0;;;24.17;60.29
77749;BME280;66938;52.084;5.228;2023-06-22T08:29:06;101856.0;;;24.22;61.0
77749;BME280;66938;52.084;5.228;2023-06-22T08:30:42;101850.0;;;24.3;57.1
77749;BME280;66938;52.084;5.228;2023-06-22T08:33:54;101846.0;;;24.4;57.07
77749;BME280;66938;52.084;5.228;2023-06-22T08:35:30;101847.0;;;24.44;57.0
77749;BME280;66938;52.084;5.228;2023-06-22T08:37:06;101848.0;;;24.58;56.34
77749;BME280;66938;52.084;5.228;2023-06-22T08:38:43;101847.0;;;24.68;56.78
77749;BME280;66938;52.084;5.228;2023-06-22T08:41:56;101848.0;;;24.81;54.92
77749;BME280;66938;52.084;5.228;2023-06-22T08:43:32;101841.0;;;24.93;56.15
77749;BME280;66938;52.084;5.228;2023-06-22T08:45:09;101833.0;;;25.05;56.96
77749;BME280;66938;52.084;5.228;2023-06-22T08:48:21;101832.0;;;25.06;57.89
77749;BME280;66938;52.084;5.228;2023-06-22T08:49:58;101832.0;;;25.11;58.46
77749;BME280;66938;52.084;5.228;2023-06-22T08:51:34;101835.0;;;25.19;57.49
77749;BME280;66938;52.084;5.228;2023-06-22T08:54:46;101835.0;;;25.11;52.72
77749;BME280;66938;52.084;5.228;2023-06-22T08:56:22;101835.0;;;25.23;57.83
77749;BME280;66938;52.084;5.228;2023-06-22T08:57:58;101833.0;;;25.16;56.56
77749;BME280;66938;52.084;5.228;2023-06-22T09:01:11;101836.0;;;25.3;56.06
77749;BME280;66938;52.084;5.228;2023-06-22T09:02:47;101831.0;;;25.3;55.91
77749;BME280;66938;52.084;5.228;2023-06-22T09:04:24;101823.0;;;25.22;56.95
77749;BME280;66938;52.084;5.228;2023-06-22T09:06:00;101830.0;;;25.22;56.09
77749;BME280;66938;52.084;5.228;2023-06-22T09:09:13;101826.0;;;25.28;57.13
77749;BME280;66938;52.084;5.228;2023-06-22T09:10:50;101826.0;;;25.31;54.52
77749;BME280;66938;52.084;5.228;2023-06-22T09:12:26;101833.0;;;25.35;54.51
77749;BME280;66938;52.084;5.228;2023-06-22T09:15:38;101831.0;;;25.23;56.28
77749;BME280;66938;52.084;5.228;2023-06-22T09:17:14;101827.0;;;25.27;51.68
77749;BME280;66938;52.084;5.228;2023-06-22T09:18:50;101825.0;;;25.31;50.98
77749;BME280;66938;52.084;5.228;2023-06-22T09:22:03;101824.0;;;25.35;49.27
77749;BME280;66938;52.084;5.228;2023-06-22T09:23:39;101831.0;;;25.24;51.92
77749;BME280;66938;52.084;5.228;2023-06-22T09:25:15;101830.0;;;25.36;50.58
77749;BME280;66938;52.084;5.228;2023-06-22T09:26:51;101826.0;;;25.37;51.43
77749;BME280;66938;52.084;5.228;2023-06-22T09:30:05;101830.0;;;25.44;52.02
77749;BME280;66938;52.084;5.228;2023-06-22T09:31:40;101839.0;;;25.4;53.9
77749;BME280;66938;52.084;5.228;2023-06-22T09:33:17;101830.0;;;25.53;54.37
77749;BME280;66938;52.084;5.228;2023-06-22T09:36:29;101824.0;;;25.58;49.64
77749;BME280;66938;52.084;5.228;2023-06-22T09:38:05;101824.0;;;25.53;50.73
77749;BME280;66938;52.084;5.228;2023-06-22T09:39:41;101826.0;;;25.5;54.41
77749;BME280;66938;52.084;5.228;2023-06-22T09:42:54;101826.0;;;25.6;53.14
77749;BME280;66938;52.084;5.228;2023-06-22T09:44:30;101827.0;;;25.62;53.5
77749;BME280;66938;52.084;5.228;2023-06-22T09:46:06;101821.0;;;25.63;53.81
77749;BME280;66938;52.084;5.228;2023-06-22T09:47:42;101818.0;;;25.69;52.05
77749;BME280;66938;52.084;5.228;2023-06-22T09:50:54;101821.0;;;25.68;53.57
77749;BME280;66938;52.084;5.228;2023-06-22T09:52:31;101817.0;;;25.61;53.52
77749;BME280;66938;52.084;5.228;2023-06-22T09:54:07;101814.0;;;25.52;50.05
77749;BME280;66938;52.084;5.228;2023-06-22T09:57:19;101811.0;;;25.47;52.87
77749;BME280;66938;52.084;5.228;2023-06-22T09:58:55;101813.0;;;25.46;54.25
77749;BME280;66938;52.084;5.228;2023-06-22T10:00:31;101808.0;;;25.44;51.69
77749;BME280;66938;52.084;5.228;2023-06-22T10:03:45;101811.0;;;25.46;50.31
77749;BME280;66938;52.084;5.228;2023-06-22T10:05:21;101809.0;;;25.37;50.41
77749;BME280;66938;52.084;5.228;2023-06-22T10:06:57;101810.0;;;25.43;53.94
77749;BME280;66938;52.084;5.228;2023-06-22T10:10:10;101808.0;;;25.32;54.87
77749;BME280;66938;52.084;5.228;2023-06-22T10:11:46;101814.0;;;25.4;53.87
77749;BME280;66938;52.084;5.228;2023-06-22T10:13:22;101816.0;;;25.4;52.45
77749;BME280;66938;52.084;5.228;2023-06-22T10:14:59;101811.0;;;25.42;53.8
77749;BME280;66938;52.084;5.228;2023-06-22T10:18:12;101814.0;;;25.45;52.28
77749;BME280;66938;52.084;5.228;2023-06-22T10:19:48;101812.0;;;25.36;54.24
77749;BME280;66938;52.084;5.228;2023-06-22T10:21:24;101818.0;;;25.34;53.2
77749;BME280;66938;52.084;5.228;2023-06-22T10:24:37;101816.0;;;25.28;54.47
77749;BME280;66938;52.084;5.228;2023-06-22T10:26:13;101815.0;;;25.3;55.69
77749;BME280;66938;52.084;5.228;2023-06-22T10:27:49;101812.0;;;25.25;55.69
77749;BME280;66938;52.084;5.228;2023-06-22T10:31:01;101805.0;;;25.17;55.81
77749;BME280;66938;52.084;5.228;2023-06-22T10:32:38;101813.0;;;25.17;56.37
77749;BME280;66938;52.084;5.228;2023-06-22T10:34:14;101816.0;;;25.13;58.16
77749;BME280;66938;52.084;5.228;2023-06-22T10:35:51;101813.0;;;25.03;57.6
77749;BME280;66938;52.084;5.228;2023-06-22T10:39:03;101816.0;;;25.06;57.69
77749;BME280;66938;52.084;5.228;2023-06-22T10:40:39;101816.0;;;24.99;59.38
77749;BME280;66938;52.084;5.228;2023-06-22T10:42:15;101819.0;;;24.97;58.6
77749;BME280;66938;52.084;5.228;2023-06-22T10:45:28;101821.0;;;24.91;59.11
77749;BME280;66938;52.084;5.228;2023-06-22T10:47:04;101817.0;;;24.97;59.89
77749;BME280;66938;52.084;5.228;2023-06-22T10:48:41;101813.0;;;24.95;60.0
77749;BME280;66938;52.084;5.228;2023-06-22T10:51:54;101813.0;;;24.9;60.29
77749;BME280;66938;52.084;5.228;2023-06-22T10:53:31;101811.0;;;24.93;60.82
77749;BME280;66938;52.084;5.228;2023-06-22T10:55:08;101816.0;;;24.77;60.82
77749;BME280;66938;52.084;5.228;2023-06-22T10:59:57;101822.0;;;24.8;60.74
77749;BME280;66938;52.084;5.228;2023-06-22T11:01:33;101822.0;;;24.78;61.31
77749;BME280;66938;52.084;5.228;2023-06-22T11:03:09;101824.0;;;24.84;60.9
77749;BME280;66938;52.084;5.228;2023-06-22T11:06:21;101822.0;;;24.8;62.39
77749;BME280;66938;52.084;5.228;2023-06-22T11:07:58;101824.0;;;24.87;61.29